createdAt,value
2023-01-02T00:02:55.751Z,10.00
2023-01-02T00:07:59.417Z,9.60
2023-01-02T00:13:02.918Z,10.40
2023-01-02T00:18:06.414Z,10.40
2023-01-02T00:23:09.889Z,10.70
2023-01-02T00:28:13.515Z,9.70
2023-01-02T00:33:17.020Z,11.80
2023-01-02T00:38:20.610Z,13.10
2023-01-02T00:43:24.207Z,13.30
2023-01-02T00:53:31.169Z,13.90
2023-01-02T00:58:34.707Z,13.10
2023-01-02T01:03:38.586Z,13.70
2023-01-02T01:08:42.066Z,14.00
2023-01-02T01:13:45.676Z,15.40
2023-01-02T01:18:49.471Z,15.00
2023-01-02T01:23:53.031Z,16.00
2023-01-02T01:28:56.546Z,16.30
2023-01-02T01:34:00.097Z,16.50
2023-01-02T01:39:03.596Z,17.40
2023-01-02T01:44:07.115Z,17.60
2023-01-02T01:49:10.638Z,16.50
2023-01-02T01:54:14.122Z,15.90
2023-01-02T01:59:17.646Z,15.60
2023-01-02T02:04:21.216Z,15.50
2023-01-02T02:09:24.776Z,16.10
2023-01-02T02:14:28.285Z,15.80
2023-01-02T02:19:31.759Z,15.80
2023-01-02T02:24:35.262Z,16.70
2023-01-02T02:29:38.816Z,16.30
2023-01-02T02:34:42.350Z,15.70
2023-01-02T02:39:46.280Z,15.20
2023-01-02T02:44:49.848Z,16.50
2023-01-02T02:49:53.356Z,16.10
2023-01-02T02:54:56.841Z,16.80
2023-01-02T03:00:00.306Z,15.30
2023-01-02T03:05:03.780Z,17.40
2023-01-02T03:10:07.269Z,16.40
2023-01-02T03:15:10.797Z,17.30
2023-01-02T03:20:14.478Z,15.80
2023-01-02T03:30:21.521Z,15.40
2023-01-02T03:35:25.012Z,16.00
2023-01-02T03:40:28.545Z,15.80
2023-01-02T03:45:32.048Z,17.40
2023-01-02T03:50:36.607Z,16.50
2023-01-02T03:55:40.139Z,16.00
2023-01-02T04:00:43.628Z,17.20
2023-01-02T04:05:47.101Z,16.70
2023-01-02T04:10:56.255Z,15.70
2023-01-02T04:16:02.813Z,15.30
2023-01-02T04:21:06.402Z,15.10
2023-01-02T04:26:09.881Z,15.60
2023-01-02T04:31:13.562Z,16.40
2023-01-02T04:36:17.139Z,16.10
2023-01-02T04:41:20.670Z,16.90
2023-01-02T04:46:24.236Z,15.40
2023-01-02T04:56:31.457Z,16.40
2023-01-02T05:01:35.113Z,16.00
2023-01-02T05:06:38.655Z,16.50
2023-01-02T05:11:42.154Z,15.40
2023-01-02T05:16:45.660Z,16.50
2023-01-02T05:22:07.206Z,18.00
2023-01-02T05:27:10.758Z,16.60
2023-01-02T05:32:14.249Z,17.20
2023-01-02T05:37:17.761Z,16.80
2023-01-02T05:42:21.465Z,18.20
2023-01-02T05:47:24.976Z,16.20
2023-01-02T05:52:28.491Z,18.10
2023-01-02T05:57:31.993Z,20.30
2023-01-02T06:02:35.520Z,18.70
2023-01-02T06:12:42.904Z,19.50
2023-01-02T06:17:46.460Z,18.30
2023-01-02T06:22:49.970Z,19.00
2023-01-02T06:27:53.507Z,18.70
2023-01-02T06:32:57.053Z,17.90
2023-01-02T06:38:00.548Z,19.10
2023-01-02T06:43:04.091Z,18.60
2023-01-02T06:48:07.717Z,19.40
2023-01-02T06:53:11.216Z,19.20
2023-01-02T06:58:19.350Z,19.80
2023-01-02T07:03:23.299Z,18.90
2023-01-02T07:08:26.871Z,21.30
2023-01-02T07:13:30.368Z,19.80
2023-01-02T07:18:33.957Z,19.60
2023-01-02T07:23:37.495Z,20.00
2023-01-02T07:28:41.300Z,20.10
2023-01-02T07:33:44.829Z,22.20
2023-01-02T07:38:48.347Z,18.50
2023-01-02T07:43:51.847Z,20.70
2023-01-02T07:48:55.381Z,21.20
2023-01-02T07:53:58.870Z,23.00
2023-01-02T07:59:02.435Z,23.30
2023-01-02T08:09:12.030Z,22.40
2023-01-02T08:14:21.561Z,24.00
2023-01-02T08:19:26.899Z,30.20
2023-01-02T08:24:30.406Z,33.90
2023-01-02T08:29:33.939Z,31.80
2023-01-02T08:34:38.023Z,36.50
2023-01-02T08:39:41.577Z,35.60
2023-01-02T08:44:45.173Z,31.00
2023-01-02T08:49:48.659Z,37.50
2023-01-02T08:54:52.413Z,36.40
2023-01-02T08:59:55.939Z,35.00
2023-01-02T09:04:59.464Z,32.10
2023-01-02T09:10:02.947Z,29.10
2023-01-02T09:15:06.449Z,30.70
2023-01-02T09:20:10.065Z,30.00
2023-01-02T09:25:15.473Z,30.10
2023-01-02T09:30:21.180Z,28.90
2023-01-02T09:35:24.668Z,28.00
2023-01-02T09:40:28.148Z,28.70
2023-01-02T09:45:31.789Z,29.30
2023-01-02T09:50:35.300Z,27.70
2023-01-02T09:55:38.812Z,25.90
2023-01-02T10:00:42.300Z,28.30
2023-01-02T10:05:45.862Z,28.50
2023-01-02T10:10:49.415Z,25.60
2023-01-02T10:15:53.107Z,24.00
2023-01-02T10:20:56.687Z,23.80
2023-01-02T10:26:00.208Z,24.20
2023-01-02T10:31:07.301Z,23.50
2023-01-02T10:36:12.272Z,22.90
2023-01-02T10:41:15.789Z,23.20
2023-01-02T10:46:19.352Z,22.40
2023-01-02T10:51:22.921Z,21.80
2023-01-02T10:56:26.484Z,22.10
2023-01-02T11:01:30.190Z,22.30
2023-01-02T11:11:43.668Z,20.20
2023-01-02T11:16:47.196Z,20.70
2023-01-02T11:21:50.769Z,20.20
2023-01-02T11:26:55.723Z,20.60
2023-01-02T11:31:59.460Z,19.00
2023-01-02T11:37:03.854Z,20.00
2023-01-02T11:42:25.374Z,19.60
2023-01-02T11:47:28.854Z,21.10
2023-01-02T11:52:32.797Z,17.90
2023-01-02T11:57:36.375Z,16.50
2023-01-02T12:02:39.943Z,17.40
2023-01-02T12:07:43.625Z,17.40
2023-01-02T12:12:47.573Z,17.50
2023-01-02T12:17:53.252Z,16.70
2023-01-02T12:22:56.770Z,16.10
2023-01-02T12:28:00.292Z,16.30
2023-01-02T12:33:03.807Z,16.80
2023-01-02T12:38:07.278Z,15.00
2023-01-02T12:43:10.859Z,13.90
2023-01-02T12:48:14.377Z,15.30
2023-01-02T12:53:20.120Z,15.50
2023-01-02T12:58:23.712Z,14.10
2023-01-02T13:03:27.242Z,15.30
2023-01-02T13:08:30.969Z,13.40
2023-01-02T13:13:34.501Z,15.60
2023-01-02T13:18:38.001Z,14.40
2023-01-02T13:24:01.461Z,15.30
2023-01-02T13:29:06.832Z,15.60
2023-01-02T13:34:10.522Z,16.20
2023-01-02T13:39:14.065Z,13.90
2023-01-02T13:44:18.673Z,13.00
2023-01-02T13:49:22.367Z,13.00
2023-01-02T13:54:25.971Z,13.00
2023-01-02T13:59:41.619Z,14.30
2023-01-02T14:04:46.946Z,11.60
2023-01-02T14:09:50.475Z,11.60
2023-01-02T14:14:53.976Z,10.30
2023-01-02T14:19:57.465Z,11.80
2023-01-02T14:25:00.946Z,11.30
2023-01-02T14:30:04.439Z,12.00
2023-01-02T14:35:08.124Z,11.70
2023-01-02T14:40:11.658Z,15.50
2023-01-02T14:45:15.155Z,13.80
2023-01-02T14:50:18.671Z,13.20
2023-01-02T14:55:22.223Z,12.00
2023-01-02T15:00:25.741Z,12.10
2023-01-02T15:05:32.166Z,10.20
2023-01-02T15:10:35.876Z,10.70
2023-01-02T15:15:39.596Z,9.20
2023-01-02T15:20:43.268Z,10.10
2023-01-02T15:25:46.784Z,9.50
2023-01-02T15:30:50.278Z,9.80
2023-01-02T15:35:53.790Z,9.90
2023-01-02T15:40:57.304Z,9.40
2023-01-02T15:46:00.826Z,8.90
2023-01-02T15:51:04.335Z,9.50
2023-01-02T15:56:08.026Z,10.50
2023-01-02T16:01:11.779Z,12.60
2023-01-02T16:11:18.873Z,9.50
2023-01-02T16:16:22.399Z,10.80
2023-01-02T16:21:25.904Z,9.00
2023-01-02T16:26:29.362Z,10.10
2023-01-02T16:31:33.071Z,10.00
2023-01-02T16:36:36.657Z,10.10
2023-01-02T16:41:42.295Z,9.30
2023-01-02T16:46:45.797Z,9.10
2023-01-02T16:51:49.311Z,9.20
2023-01-02T16:56:53.031Z,10.30
2023-01-02T17:07:00.338Z,9.10
2023-01-02T17:12:03.916Z,10.10
2023-01-02T17:17:07.667Z,8.70
2023-01-02T17:22:11.192Z,8.90
2023-01-02T17:27:14.748Z,9.90
2023-01-02T17:32:18.437Z,8.80
2023-01-02T17:37:24.471Z,9.40
2023-01-02T17:42:28.193Z,9.40
2023-01-02T17:47:58.759Z,9.40
2023-01-02T17:52:55.434Z,9.60
2023-01-02T17:58:00.464Z,9.70
2023-01-02T18:03:04.007Z,10.70
2023-01-02T18:08:07.574Z,12.40
2023-01-02T18:13:11.033Z,10.30
2023-01-02T18:18:14.590Z,11.10
2023-01-02T18:23:18.103Z,12.60
2023-01-02T18:28:21.890Z,10.80
2023-01-02T18:33:26.387Z,11.40
2023-01-02T18:38:30.053Z,11.80
2023-01-02T18:43:35.895Z,10.90
2023-01-02T18:48:39.501Z,10.30
2023-01-02T18:53:43.441Z,11.10
2023-01-02T18:58:51.503Z,10.10
2023-01-02T19:03:58.242Z,9.70
2023-01-02T19:09:01.964Z,10.00
2023-01-02T19:14:05.571Z,10.00
2023-01-02T19:19:09.119Z,9.80
2023-01-02T19:24:12.614Z,9.60
2023-01-02T19:29:17.243Z,9.30
2023-01-02T19:34:20.813Z,10.20
2023-01-02T19:39:24.922Z,11.30
2023-01-02T19:44:28.501Z,9.90
2023-01-02T19:49:31.987Z,9.10
2023-01-02T19:54:35.498Z,9.40
2023-01-02T19:59:43.648Z,9.60
2023-01-02T20:04:48.008Z,10.40
2023-01-02T20:09:52.063Z,8.80
2023-01-02T20:14:55.525Z,9.60
2023-01-02T20:19:59.172Z,9.60
2023-01-02T20:25:02.653Z,9.60
2023-01-02T20:30:07.047Z,9.10
2023-01-02T20:35:10.524Z,9.10
2023-01-02T20:40:14.075Z,8.60
2023-01-02T20:45:17.735Z,9.90
2023-01-02T20:50:21.219Z,9.30
2023-01-02T20:55:24.857Z,8.80
2023-01-02T21:00:28.749Z,10.30
2023-01-02T21:05:32.268Z,9.20
2023-01-02T21:10:36.155Z,9.20
2023-01-02T21:15:46.391Z,9.40
2023-01-02T21:25:53.954Z,9.50
2023-01-02T21:30:57.507Z,9.60
2023-01-02T21:36:01.391Z,11.00
2023-01-02T21:41:18.782Z,12.60
2023-01-02T21:46:22.343Z,11.20
2023-01-02T21:51:32.162Z,10.40
2023-01-02T21:56:36.352Z,9.00
2023-01-02T22:01:41.099Z,9.00
2023-01-02T22:07:29.352Z,9.10
2023-01-02T22:12:08.441Z,8.70
2023-01-02T22:17:11.932Z,9.00
2023-01-02T22:22:15.396Z,8.60
2023-01-02T22:27:19.026Z,8.80
2023-01-02T22:32:23.207Z,8.50
2023-01-02T22:37:26.948Z,8.10
2023-01-02T22:43:05.597Z,8.60
2023-01-02T22:48:09.582Z,7.90
2023-01-02T22:53:15.117Z,8.40
2023-01-02T22:58:18.665Z,8.30
2023-01-02T23:08:25.976Z,8.00
2023-01-02T23:18:56.488Z,8.00
2023-01-02T23:24:00.583Z,7.50
2023-01-02T23:29:07.013Z,7.60
2023-01-02T23:34:11.856Z,7.80
2023-01-02T23:39:15.377Z,6.90
2023-01-02T23:44:18.972Z,7.50
2023-01-02T23:49:23.609Z,7.10
2023-01-02T23:54:27.424Z,6.50
2023-01-02T23:59:30.898Z,7.20
